createdAt,value
2019-05-14T00:02:58.286Z,5.10
2019-05-14T00:06:22.070Z,5.10
2019-05-14T00:09:45.836Z,5.10
2019-05-14T00:13:11.881Z,5.10
2019-05-14T00:16:35.378Z,5.20
2019-05-14T00:20:07.196Z,5.10
2019-05-14T00:23:24.623Z,5.10
2019-05-14T00:26:48.457Z,5.00
2019-05-14T00:30:12.671Z,5.00
2019-05-14T00:33:36.444Z,5.00
2019-05-14T00:37:01.529Z,5.00
2019-05-14T00:40:25.657Z,4.90
2019-05-14T00:43:51.411Z,4.90
2019-05-14T00:47:14.948Z,5.00
2019-05-14T00:50:38.683Z,4.90
2019-05-14T00:54:02.604Z,4.90
2019-05-14T00:57:26.358Z,4.90
2019-05-14T01:00:52.268Z,4.90
2019-05-14T01:04:15.563Z,4.90
2019-05-14T01:07:39.430Z,4.90
2019-05-14T01:11:03.235Z,4.90
2019-05-14T01:14:27.157Z,4.90
2019-05-14T01:17:51.538Z,4.90
2019-05-14T01:21:15.688Z,4.90
2019-05-14T01:24:41.428Z,4.90
2019-05-14T01:28:05.103Z,4.90
2019-05-14T01:31:31.310Z,5.00
2019-05-14T01:34:54.507Z,5.00
2019-05-14T01:38:18.231Z,5.00
2019-05-14T01:41:42.523Z,5.10
2019-05-14T01:45:06.676Z,5.00
2019-05-14T01:48:31.316Z,5.00
2019-05-14T01:51:55.485Z,5.10
2019-05-14T01:55:21.759Z,5.10
2019-05-14T01:58:44.791Z,5.10
2019-05-14T02:02:08.632Z,5.10
2019-05-14T02:05:32.513Z,5.10
2019-05-14T02:08:56.260Z,5.20
2019-05-14T02:12:22.435Z,5.10
2019-05-14T02:15:46.076Z,5.10
2019-05-14T02:19:11.560Z,5.10
2019-05-14T02:22:35.485Z,5.10
2019-05-14T02:25:59.230Z,5.00
2019-05-14T02:29:23.103Z,5.10
2019-05-14T02:32:49.830Z,5.10
2019-05-14T02:36:12.491Z,5.00
2019-05-14T02:39:36.252Z,5.00
2019-05-14T02:43:00.052Z,5.00
2019-05-14T02:46:23.849Z,5.00
2019-05-14T02:49:50.146Z,5.00
2019-05-14T02:53:13.309Z,5.10
2019-05-14T02:56:39.984Z,5.10
2019-05-14T03:00:02.558Z,5.10
2019-05-14T03:03:29.631Z,5.10
2019-05-14T03:06:51.958Z,5.20
2019-05-14T03:10:19.182Z,5.20
2019-05-14T03:13:41.784Z,5.20
2019-05-14T03:17:05.587Z,5.20
2019-05-14T03:20:29.515Z,5.20
2019-05-14T03:23:53.367Z,5.20
2019-05-14T03:27:19.399Z,5.20
2019-05-14T03:30:43.128Z,5.20
2019-05-14T03:34:12.686Z,5.30
2019-05-14T03:37:32.755Z,5.30
2019-05-14T03:41:00.181Z,5.40
2019-05-14T03:44:23.156Z,5.40
2019-05-14T03:47:50.120Z,5.40
2019-05-14T03:51:12.650Z,5.50
2019-05-14T03:54:36.550Z,5.50
2019-05-14T03:58:00.322Z,5.60
2019-05-14T04:01:24.517Z,5.60
2019-05-14T04:04:50.077Z,5.60
2019-05-14T04:08:15.759Z,5.60
2019-05-14T04:11:42.637Z,5.70
2019-05-14T04:15:09.577Z,5.60
2019-05-14T04:18:40.534Z,5.60
2019-05-14T04:22:05.372Z,5.70
2019-05-14T04:25:30.690Z,5.80
2019-05-14T04:29:00.423Z,5.80
2019-05-14T04:32:23.020Z,5.90
2019-05-14T04:35:49.032Z,5.80
2019-05-14T04:39:12.650Z,5.90
2019-05-14T04:42:39.917Z,5.90
2019-05-14T04:46:02.304Z,6.00
2019-05-14T04:49:29.048Z,6.10
2019-05-14T04:52:51.956Z,6.10
2019-05-14T04:56:15.794Z,6.20
2019-05-14T04:59:40.091Z,6.30
2019-05-14T05:03:08.229Z,6.40
2019-05-14T05:06:29.588Z,6.40
2019-05-14T05:09:53.679Z,6.30
2019-05-14T05:13:18.431Z,6.40
2019-05-14T05:16:42.556Z,6.40
2019-05-14T05:20:09.838Z,6.30
2019-05-14T05:23:32.870Z,6.30
2019-05-14T05:26:58.509Z,6.30
2019-05-14T05:30:22.313Z,6.30
2019-05-14T05:33:48.745Z,6.30
2019-05-14T05:37:11.893Z,6.40
2019-05-14T05:40:35.788Z,6.40
2019-05-14T05:43:59.782Z,6.30
2019-05-14T05:47:23.519Z,6.30
2019-05-14T05:50:48.501Z,6.30
2019-05-14T05:54:12.663Z,6.30
2019-05-14T05:57:39.218Z,6.30
2019-05-14T06:01:03.341Z,6.60
2019-05-14T06:04:28.983Z,6.70
2019-05-14T06:07:53.953Z,6.80
2019-05-14T06:11:19.323Z,6.90
2019-05-14T06:14:44.146Z,6.90
2019-05-14T06:18:15.252Z,6.90
2019-05-14T06:21:34.767Z,6.90
2019-05-14T06:24:59.870Z,7.00
2019-05-14T06:28:28.177Z,7.20
2019-05-14T06:31:50.868Z,7.30
2019-05-14T06:35:15.095Z,7.40
2019-05-14T06:38:39.470Z,7.80
2019-05-14T06:42:03.568Z,8.10
2019-05-14T06:45:29.182Z,8.40
2019-05-14T06:48:53.945Z,8.40
2019-05-14T06:52:18.720Z,8.50
2019-05-14T06:55:43.020Z,8.40
2019-05-14T06:59:09.071Z,8.40
2019-05-14T07:02:33.381Z,8.50
2019-05-14T07:05:59.360Z,8.30
2019-05-14T07:09:23.307Z,8.20
2019-05-14T07:12:49.862Z,8.10
2019-05-14T07:16:13.573Z,8.20
2019-05-14T07:19:38.505Z,8.50
2019-05-14T07:23:02.785Z,8.80
2019-05-14T07:26:29.831Z,8.80
2019-05-14T07:29:53.782Z,8.70
2019-05-14T07:33:18.348Z,9.00
2019-05-14T07:36:42.726Z,9.30
2019-05-14T07:40:08.565Z,9.50
2019-05-14T07:43:32.648Z,9.80
2019-05-14T07:46:58.827Z,9.90
2019-05-14T07:50:22.252Z,9.80
2019-05-14T07:53:48.528Z,9.60
2019-05-14T07:57:11.673Z,9.40
2019-05-14T08:00:35.573Z,9.30
2019-05-14T08:04:00.178Z,9.40
2019-05-14T08:07:24.246Z,9.40
2019-05-14T08:10:48.668Z,9.60
2019-05-14T08:14:12.629Z,9.70
2019-05-14T08:17:38.633Z,9.90
2019-05-14T08:21:02.135Z,9.90
2019-05-14T08:24:27.120Z,9.50
2019-05-14T08:27:51.596Z,9.10
2019-05-14T08:31:15.450Z,8.90
2019-05-14T08:34:39.464Z,9.30
2019-05-14T08:38:08.134Z,9.50
2019-05-14T08:41:29.008Z,9.60
2019-05-14T08:44:52.957Z,9.40
2019-05-14T08:48:19.009Z,9.70
2019-05-14T08:51:43.069Z,9.50
2019-05-14T08:55:11.126Z,9.50
2019-05-14T08:58:33.526Z,9.50
2019-05-14T09:02:05.542Z,9.30
2019-05-14T09:05:22.725Z,9.30
2019-05-14T09:08:46.430Z,9.20
2019-05-14T09:12:12.606Z,9.10
2019-05-14T09:15:38.322Z,8.90
2019-05-14T09:19:01.589Z,8.60
2019-05-14T09:22:25.571Z,8.40
2019-05-14T09:25:53.202Z,8.50
2019-05-14T09:29:25.044Z,8.40
2019-05-14T09:32:40.734Z,8.30
2019-05-14T09:36:14.761Z,8.30
2019-05-14T09:39:29.946Z,8.40
2019-05-14T09:42:53.904Z,8.60
2019-05-14T09:46:18.542Z,8.70
2019-05-14T09:49:42.792Z,8.70
2019-05-14T09:53:09.475Z,8.90
2019-05-14T09:56:31.906Z,8.70
2019-05-14T09:59:55.740Z,8.90
2019-05-14T10:03:19.638Z,9.00
2019-05-14T10:06:43.518Z,9.20
2019-05-14T10:10:08.301Z,9.80
2019-05-14T10:13:32.183Z,10.40
2019-05-14T10:16:58.162Z,10.70
2019-05-14T10:20:36.562Z,10.60
2019-05-14T10:23:48.481Z,10.80
2019-05-14T10:27:12.403Z,10.90
2019-05-14T10:30:36.120Z,10.50
2019-05-14T10:33:59.942Z,10.00
2019-05-14T10:37:23.850Z,9.70
2019-05-14T10:40:47.637Z,9.30
2019-05-14T10:44:11.402Z,9.10
2019-05-14T10:47:35.432Z,9.20
2019-05-14T10:51:03.370Z,9.90
2019-05-14T10:54:26.024Z,10.40
2019-05-14T10:57:54.169Z,10.30
2019-05-14T11:01:20.672Z,10.10
2019-05-14T11:04:41.955Z,9.60
2019-05-14T11:08:05.874Z,9.50
2019-05-14T11:11:29.596Z,9.70
2019-05-14T11:14:53.485Z,9.50
2019-05-14T11:18:19.851Z,9.50
2019-05-14T11:21:42.828Z,10.10
2019-05-14T11:25:09.169Z,10.50
2019-05-14T11:28:33.412Z,10.50
2019-05-14T11:31:57.228Z,10.60
2019-05-14T11:35:21.006Z,10.20
2019-05-14T11:38:44.882Z,9.70
2019-05-14T11:42:09.265Z,9.30
2019-05-14T11:45:33.594Z,8.90
2019-05-14T11:48:59.406Z,8.60
2019-05-14T11:52:23.436Z,8.60
2019-05-14T11:55:50.257Z,8.50
2019-05-14T11:59:13.818Z,8.60
2019-05-14T12:02:38.488Z,8.70
2019-05-14T12:06:03.015Z,9.20
2019-05-14T12:09:28.398Z,9.30
2019-05-14T12:12:52.835Z,9.20
2019-05-14T12:16:17.937Z,9.20
2019-05-14T12:19:43.799Z,9.30
2019-05-14T12:23:08.887Z,9.20
2019-05-14T12:26:34.524Z,9.10
2019-05-14T12:29:59.904Z,9.00
2019-05-14T12:33:24.399Z,9.10
2019-05-14T12:36:49.276Z,9.50
2019-05-14T12:40:13.846Z,9.80
2019-05-14T12:43:39.617Z,9.70
2019-05-14T12:47:04.295Z,9.60
2019-05-14T12:50:28.045Z,9.70
2019-05-14T12:53:52.407Z,9.60
2019-05-14T12:57:18.815Z,9.60
2019-05-14T13:00:42.520Z,9.50
2019-05-14T13:04:08.483Z,9.30
2019-05-14T13:07:32.120Z,9.30
2019-05-14T13:10:58.607Z,9.30
2019-05-14T13:14:23.459Z,9.30
2019-05-14T13:17:48.456Z,9.30
2019-05-14T13:21:12.869Z,9.30
2019-05-14T13:24:39.461Z,9.20
2019-05-14T13:28:02.333Z,9.30
2019-05-14T13:31:28.999Z,9.40
2019-05-14T13:34:51.831Z,9.40
2019-05-14T13:38:15.604Z,9.60
2019-05-14T13:41:41.867Z,9.80
2019-05-14T13:45:10.354Z,10.10
2019-05-14T13:48:38.572Z,10.40
2019-05-14T13:51:59.922Z,10.50
2019-05-14T13:55:26.598Z,10.10
2019-05-14T13:58:49.552Z,10.10
2019-05-14T14:02:13.561Z,10.30
2019-05-14T14:05:39.211Z,10.60
2019-05-14T14:09:03.477Z,10.90
2019-05-14T14:12:31.671Z,10.90
2019-05-14T14:15:53.092Z,11.10
2019-05-14T14:19:18.764Z,11.00
2019-05-14T14:22:42.700Z,10.80
2019-05-14T14:26:09.166Z,10.40
2019-05-14T14:29:32.523Z,10.30
2019-05-14T14:32:58.707Z,10.10
2019-05-14T14:36:22.378Z,9.80
2019-05-14T14:39:48.730Z,9.60
2019-05-14T14:43:12.314Z,9.30
2019-05-14T14:46:36.388Z,9.20
2019-05-14T14:50:00.647Z,9.20
2019-05-14T14:53:41.448Z,9.10
2019-05-14T14:56:51.421Z,9.20
2019-05-14T15:00:15.799Z,9.20
2019-05-14T15:03:39.656Z,9.20
2019-05-14T15:07:03.854Z,9.30
2019-05-14T15:10:28.398Z,9.20
2019-05-14T15:13:52.569Z,9.30
2019-05-14T15:17:18.544Z,9.20
2019-05-14T15:20:42.001Z,9.10
2019-05-14T15:24:14.521Z,9.00
2019-05-14T15:27:31.927Z,9.00
2019-05-14T15:30:55.750Z,8.90
2019-05-14T15:34:19.716Z,8.90
2019-05-14T15:37:43.722Z,8.80
2019-05-14T15:41:09.400Z,8.60
2019-05-14T15:44:47.385Z,8.50
2019-05-14T15:48:03.536Z,8.40
2019-05-14T15:51:24.465Z,8.30
2019-05-14T15:54:50.610Z,8.30
2019-05-14T15:58:13.699Z,8.30
2019-05-14T16:01:39.603Z,8.20
2019-05-14T16:05:03.044Z,8.30
2019-05-14T16:08:29.446Z,8.20
2019-05-14T16:11:52.276Z,8.30
2019-05-14T16:15:18.728Z,8.30
2019-05-14T16:18:42.012Z,8.30
2019-05-14T16:22:05.853Z,8.20
2019-05-14T16:25:29.654Z,8.00
2019-05-14T16:28:59.249Z,7.90
2019-05-14T16:32:21.858Z,7.80
2019-05-14T16:35:45.681Z,7.80
2019-05-14T16:39:11.899Z,7.80
2019-05-14T16:42:35.806Z,7.60
2019-05-14T16:45:59.839Z,7.50
2019-05-14T16:49:23.885Z,7.60
2019-05-14T16:52:49.381Z,7.50
2019-05-14T16:56:13.463Z,7.50
2019-05-14T16:59:39.548Z,7.60
2019-05-14T17:03:03.385Z,7.60
2019-05-14T17:06:29.230Z,7.70
2019-05-14T17:09:52.803Z,7.60
2019-05-14T17:13:17.925Z,7.50
2019-05-14T17:16:42.437Z,7.40
2019-05-14T17:20:08.563Z,7.30
2019-05-14T17:23:32.872Z,7.30
2019-05-14T17:26:58.288Z,7.20
2019-05-14T17:30:22.575Z,7.20
2019-05-14T17:33:49.024Z,7.20
2019-05-14T17:37:12.082Z,7.20
2019-05-14T17:40:39.439Z,7.10
2019-05-14T17:44:02.011Z,7.10
2019-05-14T17:47:28.853Z,7.00
2019-05-14T17:50:51.942Z,7.00
2019-05-14T17:54:18.530Z,7.00
2019-05-14T17:57:48.882Z,7.00
2019-05-14T18:01:11.302Z,6.90
2019-05-14T18:04:35.665Z,6.90
2019-05-14T18:07:59.912Z,6.80
2019-05-14T18:11:23.762Z,6.80
2019-05-14T18:14:48.225Z,6.80
2019-05-14T18:18:12.386Z,6.80
2019-05-14T18:21:38.822Z,6.80
2019-05-14T18:25:02.883Z,6.80
2019-05-14T18:28:28.800Z,6.70
2019-05-14T18:31:54.609Z,6.70
2019-05-14T18:35:18.944Z,6.60
2019-05-14T18:38:43.159Z,6.60
2019-05-14T18:42:08.640Z,6.60
2019-05-14T18:45:32.975Z,6.60
2019-05-14T18:48:59.208Z,6.60
2019-05-14T18:52:23.103Z,6.60
2019-05-14T18:55:49.949Z,6.60
2019-05-14T18:59:13.854Z,6.50
2019-05-14T19:02:39.276Z,6.60
2019-05-14T19:06:03.425Z,6.60
2019-05-14T19:09:29.208Z,6.60
2019-05-14T19:12:53.466Z,6.60
2019-05-14T19:16:18.700Z,6.60
2019-05-14T19:19:42.529Z,6.60
2019-05-14T19:23:08.135Z,6.60
2019-05-14T19:26:36.736Z,6.50
2019-05-14T19:30:59.657Z,6.50
2019-05-14T19:34:23.233Z,6.50
2019-05-14T19:37:48.749Z,6.60
2019-05-14T19:41:12.788Z,6.60
2019-05-14T19:44:36.855Z,6.50
2019-05-14T19:48:00.731Z,6.50
2019-05-14T19:51:27.893Z,6.50
2019-05-14T19:54:51.962Z,6.50
2019-05-14T19:58:15.777Z,6.60
2019-05-14T20:01:41.805Z,6.60
2019-05-14T20:05:08.972Z,6.50
2019-05-14T20:08:32.818Z,6.50
2019-05-14T20:11:58.162Z,6.50
2019-05-14T20:15:22.003Z,6.50
2019-05-14T20:18:45.735Z,6.60
2019-05-14T20:22:09.701Z,6.50
2019-05-14T20:25:33.861Z,6.50
2019-05-14T20:28:59.309Z,6.50
2019-05-14T20:32:23.156Z,6.50
2019-05-14T20:35:48.474Z,6.50
2019-05-14T20:39:12.794Z,6.60
2019-05-14T20:42:39.362Z,6.60
2019-05-14T20:46:03.429Z,6.50
2019-05-14T20:49:28.401Z,6.60
2019-05-14T20:52:52.888Z,6.60
2019-05-14T20:56:19.064Z,6.60
2019-05-14T20:59:42.858Z,6.60
2019-05-14T21:03:08.906Z,6.60
2019-05-14T21:06:32.246Z,6.60
2019-05-14T21:09:56.291Z,6.60
2019-05-14T21:13:20.164Z,6.60
2019-05-14T21:16:44.090Z,6.60
2019-05-14T21:20:09.124Z,6.60
2019-05-14T21:23:33.262Z,6.60
2019-05-14T21:26:58.327Z,6.60
2019-05-14T21:30:22.580Z,6.60
2019-05-14T21:33:48.797Z,6.70
2019-05-14T21:37:11.934Z,6.70
2019-05-14T21:40:35.693Z,6.70
2019-05-14T21:44:01.423Z,6.70
2019-05-14T21:47:25.158Z,6.70
2019-05-14T21:50:48.992Z,6.70
2019-05-14T21:54:12.875Z,6.70
2019-05-14T21:57:38.220Z,6.70
2019-05-14T22:01:03.196Z,6.70
2019-05-14T22:04:28.994Z,6.70
2019-05-14T22:07:52.652Z,6.70
2019-05-14T22:11:18.649Z,6.70
2019-05-14T22:14:41.942Z,6.80
2019-05-14T22:18:16.522Z,6.80
2019-05-14T22:21:31.287Z,6.80
2019-05-14T22:24:55.590Z,6.90
2019-05-14T22:28:19.332Z,6.80
2019-05-14T22:31:43.058Z,6.90
2019-05-14T22:35:08.649Z,6.90
2019-05-14T22:38:32.473Z,6.90
2019-05-14T22:42:00.033Z,6.90
2019-05-14T22:45:22.140Z,6.90
2019-05-14T22:48:48.876Z,6.90
2019-05-14T22:52:11.959Z,6.90
2019-05-14T22:55:38.102Z,6.90
2019-05-14T22:59:01.246Z,6.90
2019-05-14T23:02:24.956Z,6.90
2019-05-14T23:05:48.818Z,6.90
2019-05-14T23:09:12.629Z,6.90
2019-05-14T23:12:38.617Z,7.00
2019-05-14T23:16:01.994Z,7.00
2019-05-14T23:19:25.873Z,7.00
2019-05-14T23:22:49.665Z,7.00
2019-05-14T23:26:13.563Z,7.00
2019-05-14T23:29:38.496Z,7.00
2019-05-14T23:33:02.560Z,7.00
2019-05-14T23:36:29.000Z,7.00
2019-05-14T23:39:52.195Z,7.00
2019-05-14T23:43:18.461Z,7.10
2019-05-14T23:46:41.515Z,7.10
2019-05-14T23:50:08.174Z,7.10
2019-05-14T23:53:31.579Z,7.10
2019-05-14T23:56:55.360Z,7.10
